createdAt,value
2023-04-22T00:00:48.170Z,2.80
2023-04-22T00:05:49.922Z,3.10
2023-04-22T00:10:51.569Z,3.53
2023-04-22T00:15:53.024Z,2.95
2023-04-22T00:20:54.535Z,3.38
2023-04-22T00:25:56.025Z,3.40
2023-04-22T00:30:58.821Z,3.20
2023-04-22T00:36:00.378Z,3.20
2023-04-22T00:41:02.540Z,3.28
2023-04-22T00:46:04.158Z,3.80
2023-04-22T00:51:05.954Z,3.80
2023-04-22T00:56:07.875Z,4.07
2023-04-22T01:01:09.416Z,4.10
2023-04-22T01:06:11.333Z,4.15
2023-04-22T01:11:13.697Z,4.32
2023-04-22T01:16:15.363Z,3.80
2023-04-22T01:21:17.180Z,3.95
2023-04-22T01:26:18.719Z,4.68
2023-04-22T01:31:20.322Z,4.07
2023-04-22T01:36:21.761Z,3.80
2023-04-22T01:41:23.347Z,3.38
2023-04-22T01:46:25.011Z,3.65
2023-04-22T01:51:26.636Z,3.63
2023-04-22T01:56:28.126Z,3.55
2023-04-22T02:01:29.624Z,3.80
2023-04-22T02:06:32.194Z,4.00
2023-04-22T02:11:33.719Z,4.78
2023-04-22T02:16:35.262Z,5.07
2023-04-22T02:21:36.930Z,5.25
2023-04-22T02:26:38.403Z,4.70
2023-04-22T02:31:39.865Z,5.45
2023-04-22T02:36:41.407Z,5.28
2023-04-22T02:41:42.909Z,5.40
2023-04-22T02:46:44.369Z,4.65
2023-04-22T02:51:45.896Z,5.05
2023-04-22T02:56:47.589Z,5.38
2023-04-22T03:01:49.097Z,5.45
2023-04-22T03:06:50.562Z,5.72
2023-04-22T03:11:53.108Z,5.20
2023-04-22T03:16:54.671Z,5.45
2023-04-22T03:21:57.121Z,6.10
2023-04-22T03:26:58.609Z,5.40
2023-04-22T03:32:00.187Z,5.97
2023-04-22T03:37:01.700Z,5.15
2023-04-22T03:42:03.265Z,5.90
2023-04-22T03:47:04.788Z,5.93
2023-04-22T03:52:06.814Z,6.32
2023-04-22T03:57:08.247Z,6.70
2023-04-22T04:02:09.833Z,5.72
2023-04-22T04:07:11.369Z,6.20
2023-04-22T04:12:12.778Z,7.03
2023-04-22T04:17:14.209Z,6.70
2023-04-22T04:22:15.679Z,6.10
2023-04-22T04:27:17.199Z,6.15
2023-04-22T04:32:18.773Z,6.53
2023-04-22T04:37:20.283Z,5.93
2023-04-22T04:42:24.620Z,6.03
2023-04-22T04:47:26.092Z,5.82
2023-04-22T04:52:27.585Z,6.93
2023-04-22T04:57:29.101Z,6.00
2023-04-22T05:02:30.980Z,5.55
2023-04-22T05:07:32.728Z,5.70
2023-04-22T05:12:34.355Z,6.72
2023-04-22T05:17:35.877Z,5.93
2023-04-22T05:22:37.441Z,6.70
2023-04-22T05:27:39.004Z,7.00
2023-04-22T05:32:40.541Z,7.32
2023-04-22T05:37:43.902Z,7.18
2023-04-22T05:42:45.395Z,6.97
2023-04-22T05:47:46.934Z,7.45
2023-04-22T05:52:48.415Z,6.95
2023-04-22T05:57:51.465Z,7.13
2023-04-22T06:02:53.100Z,6.90
2023-04-22T06:07:54.632Z,7.65
2023-04-22T06:12:56.859Z,7.00
2023-04-22T06:17:58.390Z,8.10
2023-04-22T06:23:00.680Z,6.93
2023-04-22T06:28:02.282Z,8.55
2023-04-22T06:33:03.935Z,8.20
2023-04-22T06:38:05.675Z,9.38
2023-04-22T06:43:07.209Z,8.88
2023-04-22T06:48:08.694Z,9.88
2023-04-22T06:53:10.213Z,10.70
2023-04-22T06:58:11.694Z,9.60
2023-04-22T07:03:13.298Z,9.48
2023-04-22T07:08:15.024Z,9.95
2023-04-22T07:13:16.506Z,10.73
2023-04-22T07:18:17.977Z,11.25
2023-04-22T07:23:19.546Z,11.02
2023-04-22T07:28:21.237Z,11.65
2023-04-22T07:33:23.156Z,11.40
2023-04-22T07:38:24.920Z,10.35
2023-04-22T07:43:26.528Z,12.52
2023-04-22T07:48:28.087Z,11.07
2023-04-22T07:53:30.398Z,11.63
2023-04-22T07:58:31.932Z,11.15
2023-04-22T08:03:33.504Z,12.80
2023-04-22T08:08:35.811Z,11.65
2023-04-22T08:13:37.297Z,12.63
2023-04-22T08:18:38.764Z,14.07
2023-04-22T08:23:40.215Z,12.27
2023-04-22T08:28:42.442Z,13.15
2023-04-22T08:33:43.920Z,13.07
2023-04-22T08:38:46.899Z,13.75
2023-04-22T08:43:49.958Z,14.38
2023-04-22T08:48:51.450Z,14.43
2023-04-22T08:53:53.000Z,14.90
2023-04-22T08:58:55.055Z,16.58
2023-04-22T09:03:59.135Z,14.40
2023-04-22T09:09:01.353Z,13.45
2023-04-22T09:14:06.603Z,15.80
2023-04-22T09:19:11.380Z,14.20
2023-04-22T09:24:13.033Z,14.80
2023-04-22T09:29:15.170Z,16.23
2023-04-22T09:34:16.725Z,15.90
2023-04-22T09:39:18.300Z,15.30
2023-04-22T09:44:19.857Z,13.10
2023-04-22T09:49:22.298Z,14.02
2023-04-22T09:54:23.827Z,12.18
2023-04-22T09:59:28.975Z,12.65
2023-04-22T10:04:31.384Z,12.13
2023-04-22T10:09:33.090Z,11.45
2023-04-22T10:14:36.189Z,11.90
2023-04-22T10:19:39.195Z,10.23
2023-04-22T10:24:42.191Z,11.20
2023-04-22T10:29:44.015Z,9.55
2023-04-22T10:34:48.997Z,9.13
2023-04-22T10:40:09.052Z,10.02
2023-04-22T10:45:17.194Z,7.75
2023-04-22T10:50:22.994Z,10.38
2023-04-22T10:55:25.800Z,10.55
2023-04-22T11:00:41.771Z,10.65
2023-04-22T11:06:11.922Z,8.23
2023-04-22T11:11:16.239Z,7.80
2023-04-22T11:16:18.871Z,7.85
2023-04-22T11:21:22.702Z,7.05
2023-04-22T11:26:35.317Z,7.15
2023-04-22T11:31:37.070Z,6.18
2023-04-22T11:36:38.630Z,7.60
2023-04-22T11:41:41.091Z,7.82
2023-04-22T11:46:44.335Z,6.80
2023-04-22T11:51:53.313Z,5.63
2023-04-22T11:56:54.925Z,5.18
2023-04-22T12:01:56.514Z,5.32
2023-04-22T12:06:58.098Z,5.72
2023-04-22T12:11:59.693Z,5.65
2023-04-22T12:17:05.837Z,5.63
2023-04-22T12:22:07.345Z,5.65
2023-04-22T12:27:08.952Z,6.88
2023-04-22T12:32:10.546Z,9.40
2023-04-22T12:37:13.610Z,10.32
2023-04-22T12:42:15.254Z,11.77
2023-04-22T12:47:18.259Z,9.82
2023-04-22T12:52:20.034Z,10.48
2023-04-22T12:57:21.669Z,10.52
2023-04-22T13:02:23.358Z,11.70
2023-04-22T13:07:24.926Z,10.90
2023-04-22T13:12:26.353Z,11.77
2023-04-22T13:17:27.923Z,11.52
2023-04-22T13:22:29.376Z,11.07
2023-04-22T13:27:30.987Z,12.15
2023-04-22T13:32:32.512Z,10.43
2023-04-22T13:37:34.027Z,9.57
2023-04-22T13:42:35.902Z,8.57
2023-04-22T13:47:37.412Z,10.25
2023-04-22T13:52:40.540Z,10.20
2023-04-22T13:57:42.124Z,10.60
2023-04-22T14:02:44.092Z,10.93
2023-04-22T14:07:45.732Z,10.38
2023-04-22T14:12:47.276Z,9.40
2023-04-22T14:17:49.690Z,9.98
2023-04-22T14:22:51.548Z,10.48
2023-04-22T14:27:52.998Z,9.70
2023-04-22T14:32:54.616Z,10.45
2023-04-22T14:37:56.120Z,9.65
2023-04-22T14:42:58.493Z,9.38
2023-04-22T14:48:00.496Z,10.00
2023-04-22T14:53:02.025Z,10.48
2023-04-22T14:58:03.510Z,10.93
2023-04-22T15:03:05.278Z,15.43
2023-04-22T15:08:06.809Z,16.25
2023-04-22T15:13:08.340Z,14.15
2023-04-22T15:18:10.759Z,13.93
2023-04-22T15:23:12.260Z,15.35
2023-04-22T15:28:13.995Z,16.33
2023-04-22T15:33:15.580Z,16.85
2023-04-22T15:38:17.322Z,15.32
2023-04-22T15:43:18.813Z,14.38
2023-04-22T15:48:20.444Z,13.63
2023-04-22T15:53:21.945Z,13.70
2023-04-22T15:58:23.489Z,12.20
2023-04-22T16:03:25.100Z,12.30
2023-04-22T16:08:26.684Z,10.75
2023-04-22T16:13:28.196Z,10.00
2023-04-22T16:18:29.807Z,9.15
2023-04-22T16:23:32.057Z,9.40
2023-04-22T16:28:33.601Z,8.48
2023-04-22T16:33:35.161Z,8.88
2023-04-22T16:38:36.693Z,7.70
2023-04-22T16:43:40.343Z,7.45
2023-04-22T16:48:42.613Z,6.65
2023-04-22T16:53:44.383Z,7.70
2023-04-22T16:58:45.979Z,6.45
2023-04-22T17:03:47.745Z,6.53
2023-04-22T17:08:49.541Z,7.32
2023-04-22T17:13:51.565Z,7.35
2023-04-22T17:18:53.130Z,8.32
2023-04-22T17:23:55.462Z,8.18
2023-04-22T17:28:57.755Z,8.18
2023-04-22T17:33:59.253Z,9.02
2023-04-22T17:39:00.738Z,8.85
2023-04-22T17:44:02.658Z,9.95
2023-04-22T17:49:04.150Z,11.75
2023-04-22T17:54:06.230Z,11.75
2023-04-22T17:59:07.811Z,10.43
2023-04-22T18:04:09.374Z,9.88
2023-04-22T18:09:10.884Z,11.07
2023-04-22T18:14:12.495Z,11.25
2023-04-22T18:19:14.088Z,12.93
2023-04-22T18:24:15.608Z,17.73
2023-04-22T18:29:17.203Z,17.38
2023-04-22T18:34:18.727Z,15.43
2023-04-22T18:39:20.330Z,15.77
2023-04-22T18:44:21.867Z,13.25
2023-04-22T18:49:23.369Z,14.32
2023-04-22T18:54:24.939Z,14.02
2023-04-22T18:59:26.484Z,12.95
2023-04-22T19:04:27.949Z,13.88
2023-04-22T19:09:31.645Z,13.32
2023-04-22T19:14:33.121Z,14.52
2023-04-22T19:19:34.622Z,13.15
2023-04-22T19:24:36.595Z,13.88
2023-04-22T19:29:42.059Z,14.07
2023-04-22T19:34:44.794Z,14.25
2023-04-22T19:39:46.291Z,14.18
2023-04-22T19:44:48.601Z,13.27
2023-04-22T19:49:50.346Z,15.20
2023-04-22T19:54:55.804Z,14.68
2023-04-22T19:59:57.504Z,14.63
2023-04-22T20:04:59.080Z,14.85
2023-04-22T20:10:02.387Z,14.30
2023-04-22T20:15:05.572Z,14.90
2023-04-22T20:20:12.039Z,15.38
2023-04-22T20:25:15.020Z,14.52
2023-04-22T20:30:16.851Z,15.55
2023-04-22T20:35:18.596Z,14.98
2023-04-22T20:40:20.399Z,15.48
2023-04-22T20:45:23.170Z,15.00
2023-04-22T20:50:24.719Z,16.52
2023-04-22T20:55:26.381Z,14.23
2023-04-22T21:00:27.886Z,13.80
2023-04-22T21:05:29.462Z,13.40
2023-04-22T21:10:31.776Z,12.50
2023-04-22T21:15:33.836Z,13.07
2023-04-22T21:20:43.273Z,13.32
2023-04-22T21:25:46.527Z,13.40
2023-04-22T21:30:48.192Z,13.10
2023-04-22T21:35:49.638Z,13.30
2023-04-22T21:40:51.163Z,12.60
2023-04-22T21:45:52.616Z,12.27
2023-04-22T21:50:54.054Z,12.32
2023-04-22T21:55:55.692Z,14.90
2023-04-22T22:00:58.116Z,13.13
2023-04-22T22:05:59.625Z,13.40
2023-04-22T22:11:04.480Z,14.93
2023-04-22T22:16:06.042Z,13.80
2023-04-22T22:21:07.553Z,14.50
2023-04-22T22:26:09.060Z,14.25
2023-04-22T22:31:10.855Z,13.65
2023-04-22T22:36:12.461Z,15.50
2023-04-22T22:41:14.351Z,16.02
2023-04-22T22:46:16.235Z,13.45
2023-04-22T22:51:18.609Z,14.95
2023-04-22T22:56:22.252Z,17.00
2023-04-22T23:01:23.862Z,16.95
2023-04-22T23:06:25.517Z,17.83
2023-04-22T23:11:27.024Z,20.83
2023-04-22T23:16:28.621Z,21.27
2023-04-22T23:21:31.864Z,22.35
2023-04-22T23:26:34.085Z,23.90
2023-04-22T23:31:35.817Z,24.02
2023-04-22T23:36:37.554Z,24.35
2023-04-22T23:41:39.084Z,23.88
2023-04-22T23:46:41.572Z,26.42
2023-04-22T23:51:43.946Z,27.30
2023-04-22T23:56:45.692Z,29.70
